Time;durP1;ratioP1;P1;durP2;ratioP2;P2;SDS_P1;SDS_P2;PMS_P1;PMS_P2;Temp;Humidity;BMP_temperature;BMP_pressure;BME280_temperature;BME280_humidity;BME280_pressure;Samples;Min_cycle;Max_cycle;Signal;HPM_P1;HPM_P2
2021/12/31 00:01:47;;;;;;;;;;;;;;;7.17;72.30;95806.25;5116473;28;1910;-46
2021/12/31 00:04:13;;;;;;;;;;;;;;;7.11;72.58;95796.13;5116396;28;1055;-45
2021/12/31 00:06:42;;;;;;;;;;;;;;;7.04;72.60;95795.78;5116148;28;1019;-46
2021/12/31 00:09:08;;;;;;;;;;;;;;;7.04;72.86;95798.44;5116119;28;1019;-46
2021/12/31 00:11:35;;;;;;;;;;;;;;;7.03;73.03;95802.06;5116359;28;1224;-45
2021/12/31 00:14:02;;;;;;;;;;;;;;;6.94;73.23;95805.47;5115651;28;1451;-46
2021/12/31 00:16:28;;;;;;;;;;;;;;;6.91;73.29;95814.53;5116116;28;1103;-46
2021/12/31 00:18:54;;;;;;;;;;;;;;;6.98;73.16;95822.84;5115811;28;1869;-45
2021/12/31 00:21:20;;;;;;;;;;;;;;;6.88;73.51;95814.75;5115925;28;1906;-46
2021/12/31 00:23:46;;;;;;;;;;;;;;;6.87;73.63;95806.91;5115657;28;1024;-46
2021/12/31 00:26:12;;;;;;;;;;;;;;;6.93;73.17;95809.09;5115817;28;1178;-45
2021/12/31 00:28:38;;;;;;;;;;;;;;;6.77;74.23;95812.97;5115776;28;1018;-46
2021/12/31 00:31:04;;;;;;;;;;;;;;;6.69;74.51;95801.25;5115922;28;1051;-46
2021/12/31 00:33:32;;;;;;;;;;;;;;;6.62;74.18;95795.56;5115917;28;1004;-45
2021/12/31 00:35:58;;;;;;;;;;;;;;;6.44;74.17;95798.69;5115645;28;1068;-45
2021/12/31 00:38:24;;;;;;;;;;;;;;;6.38;74.29;95803.66;5115929;28;1017;-46
2021/12/31 00:40:50;;;;;;;;;;;;;;;6.29;75.14;95812.34;5115288;28;2009;-45
2021/12/31 00:43:16;;;;;;;;;;;;;;;6.19;75.58;95809.56;5115496;28;995;-46
2021/12/31 00:45:43;;;;;;;;;;;;;;;6.22;75.37;95807.50;5115303;28;1207;-46
2021/12/31 00:48:11;;;;;;;;;;;;;;;6.25;75.65;95809.91;5115619;28;1012;-46
2021/12/31 00:50:38;;;;;;;;;;;;;;;6.10;76.18;95812.91;5115236;28;944;-46
2021/12/31 00:53:04;;;;;;;;;;;;;;;6.05;76.37;95811.47;5115285;28;1202;-46
2021/12/31 00:55:31;;;;;;;;;;;;;;;6.15;75.96;95805.44;5115196;28;1058;-46
2021/12/31 00:57:57;;;;;;;;;;;;;;;6.13;75.42;95800.25;5115413;28;984;-46
2021/12/31 01:00:23;;;;;;;;;;;;;;;5.86;75.62;95796.06;5114949;28;1986;-46
2021/12/31 01:02:49;;;;;;;;;;;;;;;5.73;76.17;95800.59;5115199;28;984;-45
2021/12/31 01:05:15;;;;;;;;;;;;;;;5.81;75.99;95798.22;5114840;28;1000;-46
2021/12/31 01:07:42;;;;;;;;;;;;;;;5.90;76.01;95796.69;5114314;28;964;-45
2021/12/31 01:10:12;;;;;;;;;;;;;;;5.83;75.68;95793.63;5114980;28;1228;-46
2021/12/31 01:12:38;;;;;;;;;;;;;;;5.84;75.29;95794.47;5115339;28;1145;-45
2021/12/31 01:15:09;;;;;;;;;;;;;;;5.72;75.83;95793.59;5113275;28;1100;-46
2021/12/31 01:20:21;;;;;;;;;;;;;;;5.79;75.56;95780.72;5114750;28;1983;-46
2021/12/31 01:22:47;;;;;;;;;;;;;;;5.58;75.43;95776.06;5113448;28;1098;-46
2021/12/31 01:25:13;;;;;;;;;;;;;;;5.39;76.18;95786.38;5114783;28;992;-46
2021/12/31 01:27:39;;;;;;;;;;;;;;;5.36;76.47;95790.06;5114965;28;977;-45
2021/12/31 01:30:06;;;;;;;;;;;;;;;5.57;76.60;95798.22;5114556;28;1048;-45
2021/12/31 01:32:33;;;;;;;;;;;;;;;5.68;76.86;95800.94;5114684;28;968;-46
2021/12/31 01:34:59;;;;;;;;;;;;;;;5.82;76.36;95804.34;5114478;28;976;-45
2021/12/31 01:37:25;;;;;;;;;;;;;;;5.72;75.58;95804.19;5114506;28;1023;-46
2021/12/31 01:39:51;;;;;;;;;;;;;;;5.72;75.67;95808.66;5114567;28;2012;-46
2021/12/31 01:42:22;;;;;;;;;;;;;;;5.84;75.49;95802.44;5114583;28;1075;-46
2021/12/31 01:44:57;;;;;;;;;;;;;;;5.92;75.68;95792.09;5114534;28;1052;-46
2021/12/31 01:47:33;;;;;;;;;;;;;;;5.91;75.78;95789.56;5114349;28;980;-46
2021/12/31 01:50:05;;;;;;;;;;;;;;;5.90;75.42;95809.94;5114156;28;1122;-46
2021/12/31 01:52:31;;;;;;;;;;;;;;;5.83;76.09;95798.94;5114404;28;1026;-45
2021/12/31 01:54:57;;;;;;;;;;;;;;;5.76;75.45;95804.81;5114137;28;1099;-45
2021/12/31 01:57:23;;;;;;;;;;;;;;;5.78;75.69;95809.03;5114280;28;1055;-46
2021/12/31 01:59:49;;;;;;;;;;;;;;;5.79;76.68;95812.56;5114127;28;1914;-46
2021/12/31 02:02:16;;;;;;;;;;;;;;;5.80;76.96;95815.06;5113925;28;1036;-46
2021/12/31 02:04:42;;;;;;;;;;;;;;;5.82;76.72;95820.28;5114229;28;1063;-45
2021/12/31 02:07:08;;;;;;;;;;;;;;;5.81;76.40;95829.22;5114123;28;1059;-46
2021/12/31 02:09:38;;;;;;;;;;;;;;;5.82;76.40;95825.59;5113989;28;1016;-46
2021/12/31 02:12:04;;;;;;;;;;;;;;;5.78;76.72;95832.91;5113830;28;1208;-46
2021/12/31 02:14:30;;;;;;;;;;;;;;;5.70;77.57;95834.47;5113803;28;1096;-46
2021/12/31 02:16:56;;;;;;;;;;;;;;;5.75;76.97;95825.22;5113590;28;1095;-46
2021/12/31 02:19:27;;;;;;;;;;;;;;;5.79;76.56;95833.78;5113456;28;1032;-46
2021/12/31 02:21:57;;;;;;;;;;;;;;;5.69;76.48;95833.59;5113932;28;1910;-46
2021/12/31 02:24:23;;;;;;;;;;;;;;;5.59;76.29;95829.97;5113851;28;1938;-46
2021/12/31 02:26:50;;;;;;;;;;;;;;;5.53;76.48;95839.22;5113736;28;1038;-46
2021/12/31 02:29:16;;;;;;;;;;;;;;;5.42;76.95;95836.50;5114069;28;1052;-45
2021/12/31 02:31:42;;;;;;;;;;;;;;;5.42;76.96;95841.81;5113871;28;1019;-46
2021/12/31 02:34:08;;;;;;;;;;;;;;;5.46;76.63;95838.84;5113555;28;984;-45
2021/12/31 02:36:34;;;;;;;;;;;;;;;5.36;76.73;95845.75;5113875;28;979;-46
2021/12/31 02:39:00;;;;;;;;;;;;;;;5.25;77.00;95843.91;5113796;28;1050;-46
2021/12/31 02:41:26;;;;;;;;;;;;;;;5.13;77.25;95838.66;5113575;28;1902;-46
2021/12/31 02:43:52;;;;;;;;;;;;;;;5.02;77.29;95834.09;5113639;28;1011;-46
2021/12/31 02:46:19;;;;;;;;;;;;;;;4.92;77.28;95846.34;5113742;28;1019;-46
2021/12/31 02:48:47;;;;;;;;;;;;;;;4.84;77.36;95844.25;5113698;28;1043;-46
2021/12/31 02:51:14;;;;;;;;;;;;;;;4.91;77.35;95844.63;5113398;28;1028;-46
2021/12/31 02:53:42;;;;;;;;;;;;;;;4.75;77.60;95850.19;5113570;28;1102;-45
2021/12/31 02:56:09;;;;;;;;;;;;;;;4.63;78.00;95850.09;5113396;28;1008;-45
2021/12/31 02:58:36;;;;;;;;;;;;;;;4.56;77.46;95859.41;5113575;28;1022;-46
2021/12/31 03:01:03;;;;;;;;;;;;;;;4.39;77.56;95862.38;5113329;28;1913;-45
2021/12/31 03:03:30;;;;;;;;;;;;;;;4.33;77.21;95874.25;5113344;28;1229;-46
2021/12/31 03:05:57;;;;;;;;;;;;;;;4.27;76.38;95877.31;5113325;28;1086;-46
2021/12/31 03:08:25;;;;;;;;;;;;;;;3.91;77.44;95873.56;5113544;28;980;-46
2021/12/31 03:10:52;;;;;;;;;;;;;;;3.82;77.38;95871.53;5113328;28;1265;-45
2021/12/31 03:13:18;;;;;;;;;;;;;;;3.65;78.04;95875.28;5112010;28;1252;-46
2021/12/31 03:15:44;;;;;;;;;;;;;;;3.49;77.45;95880.72;5113070;28;1179;-45
2021/12/31 03:18:11;;;;;;;;;;;;;;;3.25;78.10;95897.22;5113325;28;987;-46
2021/12/31 03:20:41;;;;;;;;;;;;;;;3.28;77.93;95899.69;5113175;28;1983;-46
2021/12/31 03:23:07;;;;;;;;;;;;;;;3.36;77.67;95895.69;5113171;28;1188;-46
2021/12/31 03:25:34;;;;;;;;;;;;;;;3.37;76.96;95897.38;5113545;28;1000;-45
2021/12/31 03:28:00;;;;;;;;;;;;;;;3.11;77.64;95890.19;5113271;28;1039;-46
2021/12/31 03:30:26;;;;;;;;;;;;;;;3.03;78.35;95904.81;5114955;28;1063;-46
2021/12/31 03:32:53;;;;;;;;;;;;;;;3.03;78.38;95918.88;5116862;28;1078;-46
2021/12/31 03:35:19;;;;;;;;;;;;;;;3.03;78.38;95928.59;5116850;28;1186;-46
2021/12/31 03:37:46;;;;;;;;;;;;;;;3.08;78.41;95923.88;5116888;27;976;-46
2021/12/31 03:40:12;;;;;;;;;;;;;;;3.08;78.35;95923.88;5116680;28;1987;-45
2021/12/31 03:42:39;;;;;;;;;;;;;;;2.89;78.24;95918.91;5116658;28;1051;-45
2021/12/31 03:45:06;;;;;;;;;;;;;;;2.65;79.31;95924.72;5116579;28;993;-45
2021/12/31 03:47:32;;;;;;;;;;;;;;;2.66;79.83;95920.31;5116674;28;988;-45
2021/12/31 03:49:58;;;;;;;;;;;;;;;2.97;80.13;95921.91;5116683;28;1062;-46
2021/12/31 03:52:24;;;;;;;;;;;;;;;3.15;79.77;95924.31;5116495;28;1014;-46
2021/12/31 03:54:50;;;;;;;;;;;;;;;3.24;79.71;95919.31;5116527;28;1055;-45
2021/12/31 03:57:16;;;;;;;;;;;;;;;3.28;79.45;95910.25;5116677;28;990;-45
2021/12/31 03:59:42;;;;;;;;;;;;;;;3.32;79.01;95911.75;5116124;28;2004;-45
2021/12/31 04:02:10;;;;;;;;;;;;;;;3.40;79.05;95923.63;5116078;28;1078;-46
2021/12/31 04:04:36;;;;;;;;;;;;;;;3.39;79.13;95914.00;5116593;28;956;-45
2021/12/31 04:07:02;;;;;;;;;;;;;;;3.39;78.94;95924.56;5116440;28;975;-46
2021/12/31 04:09:28;;;;;;;;;;;;;;;3.21;78.05;95927.44;5116310;28;980;-46
2021/12/31 04:11:54;;;;;;;;;;;;;;;3.11;77.86;95926.31;5116097;28;1161;-46
2021/12/31 04:14:20;;;;;;;;;;;;;;;2.99;77.58;95929.72;5115741;28;1628;-46
2021/12/31 04:16:46;;;;;;;;;;;;;;;2.76;78.38;95924.09;5116271;28;1019;-46
2021/12/31 04:19:13;;;;;;;;;;;;;;;2.67;79.61;95922.00;5115920;28;898;-46
2021/12/31 04:21:39;;;;;;;;;;;;;;;2.87;79.73;95920.78;5115918;28;1906;-46
2021/12/31 04:24:09;;;;;;;;;;;;;;;3.05;79.14;95908.22;5115853;28;1033;-46
2021/12/31 04:26:35;;;;;;;;;;;;;;;2.94;78.43;95908.91;5115938;28;1039;-45
2021/12/31 04:29:01;;;;;;;;;;;;;;;2.65;78.52;95919.44;5115581;28;972;-45
2021/12/31 04:31:27;;;;;;;;;;;;;;;2.54;78.55;95913.97;5116037;28;992;-46
2021/12/31 04:33:53;;;;;;;;;;;;;;;2.51;78.63;95922.94;5115604;28;979;-45
2021/12/31 04:36:19;;;;;;;;;;;;;;;2.36;78.35;95930.94;5115991;28;999;-46
2021/12/31 04:38:45;;;;;;;;;;;;;;;2.37;79.12;95933.47;5115473;28;1979;-45
2021/12/31 04:41:11;;;;;;;;;;;;;;;2.36;79.04;95938.88;5115340;27;1984;-45
2021/12/31 04:43:37;;;;;;;;;;;;;;;2.21;80.61;95932.72;5115251;28;1052;-46
2021/12/31 04:46:03;;;;;;;;;;;;;;;2.13;80.63;95941.91;5115683;28;1051;-46
2021/12/31 04:48:29;;;;;;;;;;;;;;;2.25;80.76;95945.59;5115246;28;1217;-46
2021/12/31 04:50:55;;;;;;;;;;;;;;;2.40;80.47;95938.56;5115458;28;1021;-46
2021/12/31 04:53:21;;;;;;;;;;;;;;;2.59;80.07;95942.75;5115113;28;1020;-46
2021/12/31 04:55:48;;;;;;;;;;;;;;;2.63;79.94;95947.75;5115212;28;1185;-46
2021/12/31 04:58:14;;;;;;;;;;;;;;;2.25;78.79;95947.41;5115033;28;1027;-45
2021/12/31 05:00:40;;;;;;;;;;;;;;;2.09;78.74;95956.22;5115625;28;1909;-45
2021/12/31 05:03:09;;;;;;;;;;;;;;;1.92;80.94;95959.00;5115116;28;1043;-45
2021/12/31 05:05:36;;;;;;;;;;;;;;;2.06;80.73;95966.13;5115366;28;999;-46
2021/12/31 05:08:02;;;;;;;;;;;;;;;2.17;80.48;95966.34;5115023;28;1014;-45
2021/12/31 05:10:31;;;;;;;;;;;;;;;2.08;79.38;95962.44;5114990;28;949;-45
2021/12/31 05:12:58;;;;;;;;;;;;;;;2.04;78.93;95963.56;5114703;28;1192;-46
2021/12/31 05:15:27;;;;;;;;;;;;;;;2.09;79.11;95965.94;5114612;28;1186;-46
2021/12/31 05:17:56;;;;;;;;;;;;;;;1.93;78.96;95966.81;5114918;28;1031;-46
2021/12/31 05:20:23;;;;;;;;;;;;;;;1.83;79.45;95970.06;5114863;28;1901;-46
2021/12/31 05:22:49;;;;;;;;;;;;;;;1.75;80.13;95970.53;5114896;28;1048;-46
2021/12/31 05:25:16;;;;;;;;;;;;;;;1.95;80.80;95974.63;5114557;28;1866;-46
2021/12/31 05:27:42;;;;;;;;;;;;;;;1.99;79.94;95973.50;5114587;28;1044;-46
2021/12/31 05:30:09;;;;;;;;;;;;;;;2.13;80.82;95976.22;5114443;28;1068;-46
2021/12/31 05:32:35;;;;;;;;;;;;;;;2.19;80.79;95976.81;5114496;28;1023;-46
2021/12/31 05:35:01;;;;;;;;;;;;;;;2.11;80.02;95985.16;5114304;28;1003;-46
2021/12/31 05:37:27;;;;;;;;;;;;;;;2.05;80.05;95988.13;5114533;28;1008;-46
2021/12/31 05:39:53;;;;;;;;;;;;;;;2.12;80.15;95995.59;5114184;28;1990;-45
2021/12/31 05:42:19;;;;;;;;;;;;;;;2.14;80.03;95995.53;5114330;28;1043;-46
2021/12/31 05:44:45;;;;;;;;;;;;;;;2.07;80.96;96004.75;5114383;28;1186;-45
2021/12/31 05:47:11;;;;;;;;;;;;;;;2.18;80.87;95994.41;5114438;28;1051;-45
2021/12/31 05:49:37;;;;;;;;;;;;;;;2.31;81.42;95997.19;5114305;28;1035;-46
2021/12/31 05:52:03;;;;;;;;;;;;;;;2.29;79.72;95999.06;5113806;28;1012;-46
2021/12/31 05:54:30;;;;;;;;;;;;;;;2.01;79.66;96005.09;5113864;28;1022;-45
2021/12/31 05:56:56;;;;;;;;;;;;;;;1.91;81.36;96010.88;5114374;28;1071;-45
2021/12/31 05:59:22;;;;;;;;;;;;;;;2.09;81.14;95995.81;5114311;28;1056;-44
2021/12/31 06:01:49;;;;;;;;;;;;;;;2.45;81.23;96005.16;5114156;28;1910;-44
2021/12/31 06:04:15;;;;;;;;;;;;;;;2.48;80.40;96001.47;5114144;28;1067;-44
2021/12/31 06:06:41;;;;;;;;;;;;;;;2.50;79.65;96003.09;5114334;28;1043;-46
2021/12/31 06:09:07;;;;;;;;;;;;;;;2.40;78.96;96006.38;5114218;28;983;-46
2021/12/31 06:11:34;;;;;;;;;;;;;;;2.23;79.16;96000.28;5113751;28;1219;-46
2021/12/31 06:14:02;;;;;;;;;;;;;;;2.07;80.72;96004.75;5113738;28;1116;-46
2021/12/31 06:16:28;;;;;;;;;;;;;;;2.24;79.86;96007.25;5113856;28;1063;-46
2021/12/31 06:18:54;;;;;;;;;;;;;;;2.35;80.15;96006.63;5113924;28;1068;-45
2021/12/31 06:21:21;;;;;;;;;;;;;;;2.59;79.46;96006.13;5113726;28;1905;-46
2021/12/31 06:23:47;;;;;;;;;;;;;;;2.76;78.93;96008.59;5113744;28;991;-45
2021/12/31 06:26:13;;;;;;;;;;;;;;;2.63;77.74;96002.34;5113575;28;1946;-45
2021/12/31 06:28:39;;;;;;;;;;;;;;;2.72;78.03;96009.72;5113976;28;976;-46
2021/12/31 06:31:05;;;;;;;;;;;;;;;2.85;78.20;96012.50;5113258;28;1948;-46
2021/12/31 06:33:32;;;;;;;;;;;;;;;2.86;76.55;96012.38;5114103;28;1067;-46
2021/12/31 06:35:58;;;;;;;;;;;;;;;3.02;76.05;96014.09;5113606;28;1036;-45
2021/12/31 06:38:24;;;;;;;;;;;;;;;3.12;76.20;96018.72;5113974;28;1079;-45
2021/12/31 06:40:50;;;;;;;;;;;;;;;4.12;74.25;96019.47;5113544;28;1910;-45
2021/12/31 06:43:16;;;;;;;;;;;;;;;7.43;63.02;96019.66;5113769;28;1081;-46
2021/12/31 06:45:42;;;;;;;;;;;;;;;10.37;53.80;96019.00;5113322;28;1275;-45
2021/12/31 06:48:08;;;;;;;;;;;;;;;9.15;55.13;96024.28;5113859;28;1003;-46
2021/12/31 06:50:37;;;;;;;;;;;;;;;7.61;59.93;96031.53;5113783;28;1019;-47
2021/12/31 06:53:04;;;;;;;;;;;;;;;7.14;61.97;96040.56;5113751;28;1051;-45
2021/12/31 06:55:32;;;;;;;;;;;;;;;6.79;63.34;96036.97;5113515;28;1075;-45
2021/12/31 06:57:59;;;;;;;;;;;;;;;6.67;64.12;96050.34;5113731;28;1043;-45
2021/12/31 07:00:25;;;;;;;;;;;;;;;7.05;63.32;96055.41;5112315;28;1983;-46
2021/12/31 07:03:03;;;;;;;;;;;;;;;7.17;63.17;96054.47;5113433;28;1020;-46
2021/12/31 07:05:29;;;;;;;;;;;;;;;7.48;62.44;96061.91;5115367;28;1082;-45
2021/12/31 07:07:55;;;;;;;;;;;;;;;7.18;63.48;96071.28;5117282;28;984;-46
2021/12/31 07:10:21;;;;;;;;;;;;;;;7.12;63.74;96071.75;5117170;28;1040;-46
2021/12/31 07:12:47;;;;;;;;;;;;;;;7.03;64.54;96078.59;5117378;28;1216;-46
2021/12/31 07:15:13;;;;;;;;;;;;;;;6.91;64.54;96079.56;5116998;28;1335;-45
2021/12/31 07:17:39;;;;;;;;;;;;;;;6.60;65.77;96076.50;5117368;28;1050;-45
2021/12/31 07:20:06;;;;;;;;;;;;;;;6.15;67.43;96074.47;5117005;28;1906;-45
2021/12/31 07:22:35;;;;;;;;;;;;;;;5.91;68.48;96073.56;5116888;28;1056;-45
2021/12/31 07:25:01;;;;;;;;;;;;;;;5.84;68.79;96073.13;5117032;28;1044;-46
2021/12/31 07:27:28;;;;;;;;;;;;;;;5.57;69.80;96082.09;5117106;28;981;-46
2021/12/31 07:29:54;;;;;;;;;;;;;;;5.67;70.19;96072.56;5117014;28;1028;-45
2021/12/31 07:32:20;;;;;;;;;;;;;;;5.66;70.82;96070.00;5115543;28;1080;-45
2021/12/31 07:34:46;;;;;;;;;;;;;;;5.73;70.17;96070.41;5117156;28;996;-45
2021/12/31 07:37:12;;;;;;;;;;;;;;;5.86;70.22;96064.13;5116681;28;1043;-45
2021/12/31 07:39:46;;;;;;;;;;;;;;;5.55;71.52;96046.88;5117074;28;972;-45
2021/12/31 07:42:12;;;;;;;;;;;;;;;5.77;70.94;96051.50;5116825;28;1015;-46
2021/12/31 07:44:38;;;;;;;;;;;;;;;5.93;69.95;96051.25;5116622;28;1035;-46
2021/12/31 07:47:04;;;;;;;;;;;;;;;6.08;69.65;96048.47;5116833;28;1039;-46
2021/12/31 07:49:30;;;;;;;;;;;;;;;6.25;68.90;96053.41;5116661;28;973;-45
2021/12/31 07:51:56;;;;;;;;;;;;;;;6.27;68.21;96054.13;5116482;28;1060;-46
2021/12/31 07:54:24;;;;;;;;;;;;;;;6.51;68.40;96055.97;5116580;28;2137;-46
2021/12/31 07:56:50;;;;;;;;;;;;;;;6.88;67.14;96055.84;5116680;28;993;-46
2021/12/31 07:59:16;;;;;;;;;;;;;;;7.17;65.96;96056.25;5116737;28;1139;-46
2021/12/31 08:01:43;;;;;;;;;;;;;;;6.98;66.66;96064.81;5148909;27;1913;-46
2021/12/31 08:04:10;;;;;;;;;;;;;;;6.76;68.16;96057.63;5116577;28;1047;-45
2021/12/31 08:06:36;;;;;;;;;;;;;;;6.90;67.47;96059.22;5116008;28;2029;-45
2021/12/31 08:09:02;;;;;;;;;;;;;;;7.14;65.89;96051.19;5116200;28;2002;-46
2021/12/31 08:11:28;;;;;;;;;;;;;;;7.20;65.88;96048.06;5116276;28;1216;-45
2021/12/31 08:13:54;;;;;;;;;;;;;;;7.27;66.31;96051.94;5114663;28;1108;-47
2021/12/31 08:16:20;;;;;;;;;;;;;;;7.39;67.01;96047.47;5115617;28;1035;-46
2021/12/31 08:18:46;;;;;;;;;;;;;;;7.48;66.19;96035.28;5115562;28;980;-45
2021/12/31 08:21:13;;;;;;;;;;;;;;;7.71;66.41;96047.59;5116026;28;1902;-46
2021/12/31 08:23:39;;;;;;;;;;;;;;;7.50;66.85;96042.16;5116019;28;1019;-47
2021/12/31 08:26:05;;;;;;;;;;;;;;;7.61;67.15;96046.66;5116138;28;988;-46
2021/12/31 08:28:31;;;;;;;;;;;;;;;7.56;67.31;96049.66;5115653;28;1015;-47
2021/12/31 08:30:58;;;;;;;;;;;;;;;7.62;67.16;96049.19;5115776;28;1039;-46
2021/12/31 08:33:26;;;;;;;;;;;;;;;7.68;67.59;96049.66;5115541;28;1035;-49
2021/12/31 08:35:53;;;;;;;;;;;;;;;7.50;67.75;96044.00;5115633;28;1043;-44
2021/12/31 08:38:19;;;;;;;;;;;;;;;7.46;68.07;96050.53;5115504;28;1075;-45
2021/12/31 08:40:45;;;;;;;;;;;;;;;7.45;68.81;96043.50;5115697;27;1926;-45
2021/12/31 08:43:11;;;;;;;;;;;;;;;7.66;67.81;96048.94;5115551;27;948;-46
2021/12/31 08:45:37;;;;;;;;;;;;;;;7.65;68.11;96041.94;5115499;28;1028;-46
2021/12/31 08:48:03;;;;;;;;;;;;;;;7.59;68.12;96032.63;5115280;28;1015;-45
2021/12/31 08:50:30;;;;;;;;;;;;;;;7.74;68.09;96043.84;5115373;28;1027;-46
2021/12/31 08:52:56;;;;;;;;;;;;;;;7.85;67.53;96032.34;5115432;28;1062;-46
2021/12/31 08:55:23;;;;;;;;;;;;;;;8.06;66.98;96027.13;5115596;28;973;-46
2021/12/31 08:57:49;;;;;;;;;;;;;;;8.04;67.37;96027.22;5115162;28;984;-46
2021/12/31 09:00:15;;;;;;;;;;;;;;;8.20;67.16;96029.50;5115228;28;1918;-45
2021/12/31 09:02:42;;;;;;;;;;;;;;;8.52;65.98;96026.91;5115021;28;1094;-46
2021/12/31 09:05:08;;;;;;;;;;;;;;;8.69;63.89;96029.97;5115431;28;972;-45
2021/12/31 09:07:36;;;;;;;;;;;;;;;8.65;64.81;96023.19;5114952;28;1943;-45
2021/12/31 09:10:02;;;;;;;;;;;;;;;8.57;64.26;96018.50;5115167;28;1035;-46
2021/12/31 09:12:28;;;;;;;;;;;;;;;8.84;65.05;96018.03;5114872;28;1153;-45
2021/12/31 09:14:55;;;;;;;;;;;;;;;10.24;61.31;96011.22;5114729;28;1084;-46
2021/12/31 09:17:22;;;;;;;;;;;;;;;11.97;54.84;96012.16;5113696;28;1007;-46
2021/12/31 09:19:49;;;;;;;;;;;;;;;12.34;53.63;96005.84;5114985;28;1040;-46
2021/12/31 09:22:15;;;;;;;;;;;;;;;12.34;53.02;96013.91;5115021;28;992;-46
2021/12/31 09:24:43;;;;;;;;;;;;;;;13.42;50.93;96014.72;5114673;28;1080;-46
2021/12/31 09:27:10;;;;;;;;;;;;;;;15.40;46.00;96005.38;5113943;28;1107;-46
2021/12/31 09:29:36;;;;;;;;;;;;;;;18.59;38.44;96006.00;5114465;28;999;-46
2021/12/31 09:32:02;;;;;;;;;;;;;;;20.53;34.39;95997.59;5113445;28;991;-47
2021/12/31 09:34:29;;;;;;;;;;;;;;;21.26;33.02;95998.63;5114398;28;1062;-46
2021/12/31 09:36:55;;;;;;;;;;;;;;;21.92;31.09;95997.00;5114764;28;976;-46
2021/12/31 09:39:21;;;;;;;;;;;;;;;22.52;30.30;95998.75;5114552;28;1035;-47
2021/12/31 09:41:47;;;;;;;;;;;;;;;21.80;30.58;96002.25;5114391;28;1905;-47
2021/12/31 09:44:14;;;;;;;;;;;;;;;20.96;32.64;96002.78;5114450;28;972;-46
2021/12/31 09:46:40;;;;;;;;;;;;;;;21.55;31.59;96002.06;5114582;28;980;-47
2021/12/31 09:49:06;;;;;;;;;;;;;;;22.17;30.46;95983.53;5114429;27;1024;-47
2021/12/31 09:51:33;;;;;;;;;;;;;;;22.49;29.68;95996.47;5110274;28;1267;-47
2021/12/31 09:53:59;;;;;;;;;;;;;;;23.62;28.04;95990.38;5112419;28;1244;-47
2021/12/31 09:56:27;;;;;;;;;;;;;;;24.61;27.05;95985.00;5113738;28;1064;-47
2021/12/31 09:58:53;;;;;;;;;;;;;;;22.04;30.38;95980.84;5114153;28;999;-47
2021/12/31 10:01:19;;;;;;;;;;;;;;;22.63;30.30;95978.16;5114030;28;1979;-46
2021/12/31 10:03:56;;;;;;;;;;;;;;;21.03;32.52;95979.16;5113705;28;1040;-47
2021/12/31 10:06:23;;;;;;;;;;;;;;;18.60;35.92;95964.38;5113877;28;1044;-47
2021/12/31 10:08:49;;;;;;;;;;;;;;;15.99;40.69;95957.41;5114063;28;993;-46
2021/12/31 10:11:17;;;;;;;;;;;;;;;14.13;45.75;95961.63;5113856;28;1161;-46
2021/12/31 10:13:46;;;;;;;;;;;;;;;12.97;48.67;95955.78;5113672;28;1322;-46
2021/12/31 10:16:19;;;;;;;;;;;;;;;11.90;51.41;95955.63;5114180;28;992;-45
2021/12/31 10:18:45;;;;;;;;;;;;;;;11.05;54.46;95949.44;5113895;28;965;-46
2021/12/31 10:21:13;;;;;;;;;;;;;;;11.08;53.73;95951.00;5113884;28;1902;-45
2021/12/31 10:23:39;;;;;;;;;;;;;;;10.91;55.09;95941.88;5113719;28;986;-45
2021/12/31 10:26:09;;;;;;;;;;;;;;;10.76;55.23;95941.47;5113949;28;1018;-45
2021/12/31 10:28:36;;;;;;;;;;;;;;;10.63;55.76;95941.75;5113694;28;1035;-45
2021/12/31 10:31:09;;;;;;;;;;;;;;;10.59;56.79;95939.53;5113687;28;977;-45
2021/12/31 10:33:39;;;;;;;;;;;;;;;10.66;55.60;95936.13;5113745;28;1129;-45
2021/12/31 10:36:05;;;;;;;;;;;;;;;10.74;56.66;95940.78;5112584;28;1055;-45
2021/12/31 10:38:36;;;;;;;;;;;;;;;10.86;56.80;95936.94;5114132;28;1020;-45
2021/12/31 10:41:03;;;;;;;;;;;;;;;11.91;53.73;95933.19;5117918;28;1975;-45
2021/12/31 10:43:29;;;;;;;;;;;;;;;13.62;48.66;95931.19;5117537;28;1004;-45
2021/12/31 10:45:55;;;;;;;;;;;;;;;13.66;47.53;95919.97;5117672;28;936;-46
2021/12/31 10:48:21;;;;;;;;;;;;;;;13.32;49.08;95914.63;5118218;28;1059;-46
2021/12/31 10:50:51;;;;;;;;;;;;;;;12.46;51.96;95920.66;5117691;28;1008;-45
2021/12/31 10:53:33;;;;;;;;;;;;;;;12.61;50.57;95908.38;5117845;28;1081;-46
2021/12/31 10:56:12;;;;;;;;;;;;;;;13.79;47.55;95903.41;5117493;28;1028;-47
2021/12/31 10:58:40;;;;;;;;;;;;;;;16.80;41.98;95911.19;5116950;27;1131;-46
2021/12/31 11:01:07;;;;;;;;;;;;;;;18.21;38.57;95897.88;5116738;28;1909;-51
2021/12/31 11:03:34;;;;;;;;;;;;;;;18.66;36.89;95890.47;5116877;28;952;-46
2021/12/31 11:06:02;;;;;;;;;;;;;;;17.12;40.07;95891.19;5116336;28;1036;-46
2021/12/31 11:08:29;;;;;;;;;;;;;;;16.15;41.27;95891.75;5117643;28;977;-45
2021/12/31 11:10:56;;;;;;;;;;;;;;;15.45;42.40;95881.75;5117387;28;1067;-46
2021/12/31 11:13:26;;;;;;;;;;;;;;;14.73;43.78;95876.34;5097021;28;1058;-46
2021/12/31 11:15:54;;;;;;;;;;;;;;;13.97;46.75;95872.88;5096744;28;1036;-46
2021/12/31 11:18:23;;;;;;;;;;;;;;;13.54;47.85;95872.91;5096817;28;1214;-46
2021/12/31 11:20:50;;;;;;;;;;;;;;;13.78;47.30;95866.78;5096833;28;1984;-45
2021/12/31 11:23:22;;;;;;;;;;;;;;;13.86;46.95;95865.94;5096706;28;1016;-45
2021/12/31 11:25:50;;;;;;;;;;;;;;;13.77;47.10;95862.41;5096543;28;1954;-45
2021/12/31 11:28:27;;;;;;;;;;;;;;;13.44;47.73;95856.06;5096896;28;1001;-45
2021/12/31 11:30:56;;;;;;;;;;;;;;;13.48;48.96;95860.94;5096364;28;1031;-45
2021/12/31 11:33:28;;;;;;;;;;;;;;;13.35;48.65;95859.72;5096769;28;963;-45
2021/12/31 11:35:58;;;;;;;;;;;;;;;13.20;49.43;95859.44;5095081;28;1020;-45
2021/12/31 11:38:24;;;;;;;;;;;;;;;13.45;47.93;95857.78;5096451;28;1101;-46
2021/12/31 11:41:08;;;;;;;;;;;;;;;13.03;48.84;95850.47;5096319;28;1984;-46
2021/12/31 11:43:38;;;;;;;;;;;;;;;12.69;49.96;95851.25;5096429;28;980;-45
2021/12/31 11:46:11;;;;;;;;;;;;;;;12.38;51.05;95853.53;5096040;28;979;-45
2021/12/31 11:48:43;;;;;;;;;;;;;;;12.47;50.70;95852.63;5096597;28;999;-46
2021/12/31 11:51:13;;;;;;;;;;;;;;;12.30;51.38;95848.97;5095115;28;928;-46
2021/12/31 11:53:59;;;;;;;;;;;;;;;12.03;51.67;95850.72;5096144;28;1222;-45
2021/12/31 11:56:38;;;;;;;;;;;;;;;12.01;52.14;95849.19;5088631;28;1266;-45
2021/12/31 11:59:07;;;;;;;;;;;;;;;11.95;51.46;95857.84;5096276;28;1059;-46
2021/12/31 12:01:36;;;;;;;;;;;;;;;12.01;51.11;95860.75;5096073;28;1906;-45
2021/12/31 12:04:21;;;;;;;;;;;;;;;12.48;51.30;95865.00;5096236;28;960;-45
2021/12/31 12:06:56;;;;;;;;;;;;;;;12.40;52.03;95867.63;5095658;28;1075;-45
2021/12/31 12:09:22;;;;;;;;;;;;;;;11.95;52.33;95865.88;5096114;28;984;-45
2021/12/31 12:12:03;;;;;;;;;;;;;;;11.60;53.70;95870.16;5103007;28;1161;-45
2021/12/31 12:15:08;;;;;;;;;;;;;;;11.54;54.07;95876.97;5116182;28;1321;-46
2021/12/31 12:17:36;;;;;;;;;;;;;;;11.47;54.74;95859.81;5053058;28;1145;-46
2021/12/31 12:20:02;;;;;;;;;;;;;;;11.45;54.89;95861.78;5053114;28;2053;-45
2021/12/31 12:22:28;;;;;;;;;;;;;;;11.38;54.39;95866.88;5083467;28;950;-46
2021/12/31 12:24:56;;;;;;;;;;;;;;;11.32;55.05;95865.66;5116237;28;1007;-46
2021/12/31 12:27:23;;;;;;;;;;;;;;;11.31;55.22;95868.50;5115697;28;1075;-45
2021/12/31 12:29:49;;;;;;;;;;;;;;;11.45;55.34;95857.25;5115807;28;977;-45
2021/12/31 12:32:17;;;;;;;;;;;;;;;11.39;55.06;95852.50;5116046;28;1060;-45
2021/12/31 12:34:44;;;;;;;;;;;;;;;11.45;54.65;95851.91;5115968;28;995;-45
2021/12/31 12:37:10;;;;;;;;;;;;;;;11.62;54.13;95857.47;5115731;28;991;-45
2021/12/31 12:39:37;;;;;;;;;;;;;;;11.69;54.20;95853.19;5115668;28;1072;-45
2021/12/31 12:42:06;;;;;;;;;;;;;;;11.80;55.02;95852.13;5115188;28;1902;-45
2021/12/31 12:44:33;;;;;;;;;;;;;;;11.78;54.26;95852.31;5115810;28;976;-46
2021/12/31 12:47:00;;;;;;;;;;;;;;;11.70;54.97;95857.56;5115568;28;1027;-45
2021/12/31 12:49:28;;;;;;;;;;;;;;;11.62;53.74;95846.75;5115682;28;960;-45
2021/12/31 12:52:09;;;;;;;;;;;;;;;11.67;54.26;95850.66;5115491;28;957;-45
2021/12/31 12:54:35;;;;;;;;;;;;;;;11.64;55.29;95848.28;5115714;27;1036;-45
2021/12/31 12:57:01;;;;;;;;;;;;;;;11.59;55.16;95852.41;5114949;28;1024;-45
2021/12/31 12:59:27;;;;;;;;;;;;;;;11.46;56.13;95840.22;5115509;28;1086;-46
2021/12/31 13:01:53;;;;;;;;;;;;;;;11.44;56.18;95834.19;5115141;28;1990;-45
2021/12/31 13:04:23;;;;;;;;;;;;;;;11.40;55.91;95838.16;5115210;28;1075;-46
2021/12/31 13:07:00;;;;;;;;;;;;;;;11.39;56.81;95835.63;5115183;28;984;-45
2021/12/31 13:09:30;;;;;;;;;;;;;;;11.30;56.74;95837.34;5113879;28;1044;-45
2021/12/31 13:11:59;;;;;;;;;;;;;;;11.23;57.54;95838.91;5114897;28;1212;-45